San Diego, California
Traffic Map
Current Weather Conditions
San Diego, California
Few Clouds
Few Clouds
78°
Feels Like: 80°
Wind Chill: 78° Ceiling: Unl
Heat Index: 80° Visibility: 10mi
Dew Point: 64° Wind: 8mph
Humidity: 62% Direction: 310° (NW)
Pressure: 29.77in Gusts: 0mph
Raw Report DataKSAN 302351Z 31007KT 10SM FEW013 26/18 A2977 RMK AO2 SLP082 T02560178 10261 20228 56013 $
Traffic Incident Summary
Active as of:
Severity:
Category:
InformationThere was an issue retrieving the traffic information for this location. Please try a different location or try again shortly.
Advertisements
Track Severe Weather on mobile